sensor_id;sensor_type;location;lat;lon;timestamp;P1;P2;P0
79689;PMS5003;69156;55.932;-3.238;2023-11-18T00:00:42;6;6;
79689;PMS5003;69156;55.932;-3.238;2023-11-18T00:03:08;6;6;
79689;PMS5003;69156;55.932;-3.238;2023-11-18T00:05:33;10;9;
79689;PMS5003;69156;55.932;-3.238;2023-11-18T00:07:59;9;8;
79689;PMS5003;69156;55.932;-3.238;2023-11-18T00:10:24;10;9;
79689;PMS5003;69156;55.932;-3.238;2023-11-18T00:12:50;8;8;
79689;PMS5003;69156;55.932;-3.238;2023-11-18T00:15:16;13;12;
79689;PMS5003;69156;55.932;-3.238;2023-11-18T00:17:41;10;9;
79689;PMS5003;69156;55.932;-3.238;2023-11-18T00:20:07;10;10;
79689;PMS5003;69156;55.932;-3.238;2023-11-18T00:22:31;12;11;
79689;PMS5003;69156;55.932;-3.238;2023-11-18T00:24:57;12;11;
79689;PMS5003;69156;55.932;-3.238;2023-11-18T00:27:23;12;12;
79689;PMS5003;69156;55.932;-3.238;2023-11-18T00:29:48;13;12;
79689;PMS5003;69156;55.932;-3.238;2023-11-18T00:32:13;9;9;
79689;PMS5003;69156;55.932;-3.238;2023-11-18T00:34:39;10;10;
79689;PMS5003;69156;55.932;-3.238;2023-11-18T00:37:05;9;9;
79689;PMS5003;69156;55.932;-3.238;2023-11-18T00:39:30;6;6;
79689;PMS5003;69156;55.932;-3.238;2023-11-18T00:41:56;8;8;
79689;PMS5003;69156;55.932;-3.238;2023-11-18T00:44:21;10;10;
79689;PMS5003;69156;55.932;-3.238;2023-11-18T00:46:47;9;9;
79689;PMS5003;69156;55.932;-3.238;2023-11-18T00:49:12;12;10;
79689;PMS5003;69156;55.932;-3.238;2023-11-18T00:51:38;11;11;
79689;PMS5003;69156;55.932;-3.238;2023-11-18T00:54:03;9;9;
79689;PMS5003;69156;55.932;-3.238;2023-11-18T00:56:28;11;11;
79689;PMS5003;69156;55.932;-3.238;2023-11-18T00:58:54;10;10;
79689;PMS5003;69156;55.932;-3.238;2023-11-18T01:01:19;9;9;
79689;PMS5003;69156;55.932;-3.238;2023-11-18T01:03:44;11;10;
79689;PMS5003;69156;55.932;-3.238;2023-11-18T01:06:10;12;12;
79689;PMS5003;69156;55.932;-3.238;2023-11-18T01:08:35;10;10;
79689;PMS5003;69156;55.932;-3.238;2023-11-18T01:11:00;11;11;
79689;PMS5003;69156;55.932;-3.238;2023-11-18T01:13:26;11;11;
79689;PMS5003;69156;55.932;-3.238;2023-11-18T01:15:51;13;13;
79689;PMS5003;69156;55.932;-3.238;2023-11-18T01:18:16;11;11;
79689;PMS5003;69156;55.932;-3.238;2023-11-18T01:20:42;13;12;
79689;PMS5003;69156;55.932;-3.238;2023-11-18T01:23:08;11;11;
79689;PMS5003;69156;55.932;-3.238;2023-11-18T01:25:33;10;10;
79689;PMS5003;69156;55.932;-3.238;2023-11-18T01:27:59;11;10;
79689;PMS5003;69156;55.932;-3.238;2023-11-18T01:30:24;9;9;
79689;PMS5003;69156;55.932;-3.238;2023-11-18T01:32:49;12;12;
79689;PMS5003;69156;55.932;-3.238;2023-11-18T01:35:14;11;10;
79689;PMS5003;69156;55.932;-3.238;2023-11-18T01:37:39;12;12;
79689;PMS5003;69156;55.932;-3.238;2023-11-18T01:40:05;14;12;
79689;PMS5003;69156;55.932;-3.238;2023-11-18T01:42:31;17;13;
79689;PMS5003;69156;55.932;-3.238;2023-11-18T01:44:56;11;11;
79689;PMS5003;69156;55.932;-3.238;2023-11-18T01:47:22;14;14;
79689;PMS5003;69156;55.932;-3.238;2023-11-18T01:49:48;12;12;
79689;PMS5003;69156;55.932;-3.238;2023-11-18T01:52:14;12;12;
79689;PMS5003;69156;55.932;-3.238;2023-11-18T01:54:39;13;13;
79689;PMS5003;69156;55.932;-3.238;2023-11-18T01:57:04;13;13;
79689;PMS5003;69156;55.932;-3.238;2023-11-18T01:59:30;11;11;
79689;PMS5003;69156;55.932;-3.238;2023-11-18T02:01:55;13;12;
79689;PMS5003;69156;55.932;-3.238;2023-11-18T02:04:21;12;11;
79689;PMS5003;69156;55.932;-3.238;2023-11-18T02:06:47;13;12;
79689;PMS5003;69156;55.932;-3.238;2023-11-18T02:09:12;14;13;
79689;PMS5003;69156;55.932;-3.238;2023-11-18T02:11:39;14;14;
79689;PMS5003;69156;55.932;-3.238;2023-11-18T02:14:03;13;13;
79689;PMS5003;69156;55.932;-3.238;2023-11-18T02:16:29;16;14;
79689;PMS5003;69156;55.932;-3.238;2023-11-18T02:18:54;14;14;
79689;PMS5003;69156;55.932;-3.238;2023-11-18T02:21:20;16;16;
79689;PMS5003;69156;55.932;-3.238;2023-11-18T02:23:47;11;10;
79689;PMS5003;69156;55.932;-3.238;2023-11-18T02:26:11;11;11;
79689;PMS5003;69156;55.932;-3.238;2023-11-18T02:28:36;11;11;
79689;PMS5003;69156;55.932;-3.238;2023-11-18T02:31:03;12;11;
79689;PMS5003;69156;55.932;-3.238;2023-11-18T02:33:27;10;10;
79689;PMS5003;69156;55.932;-3.238;2023-11-18T02:35:52;12;12;
79689;PMS5003;69156;55.932;-3.238;2023-11-18T02:38:18;10;10;
79689;PMS5003;69156;55.932;-3.238;2023-11-18T02:40:43;14;14;
79689;PMS5003;69156;55.932;-3.238;2023-11-18T02:43:09;17;17;
79689;PMS5003;69156;55.932;-3.238;2023-11-18T02:45:36;16;15;
79689;PMS5003;69156;55.932;-3.238;2023-11-18T02:48:01;13;13;
79689;PMS5003;69156;55.932;-3.238;2023-11-18T02:50:26;15;13;
79689;PMS5003;69156;55.932;-3.238;2023-11-18T02:52:52;13;13;
79689;PMS5003;69156;55.932;-3.238;2023-11-18T02:55:17;12;11;
79689;PMS5003;69156;55.932;-3.238;2023-11-18T02:57:42;11;11;
79689;PMS5003;69156;55.932;-3.238;2023-11-18T03:00:08;15;13;
79689;PMS5003;69156;55.932;-3.238;2023-11-18T03:02:32;11;11;
79689;PMS5003;69156;55.932;-3.238;2023-11-18T03:04:59;12;12;
79689;PMS5003;69156;55.932;-3.238;2023-11-18T03:07:25;12;12;
79689;PMS5003;69156;55.932;-3.238;2023-11-18T03:09:50;16;16;
79689;PMS5003;69156;55.932;-3.238;2023-11-18T03:12:15;18;17;
79689;PMS5003;69156;55.932;-3.238;2023-11-18T03:14:40;15;15;
79689;PMS5003;69156;55.932;-3.238;2023-11-18T03:17:05;15;15;
79689;PMS5003;69156;55.932;-3.238;2023-11-18T03:19:30;19;18;
79689;PMS5003;69156;55.932;-3.238;2023-11-18T03:21:56;19;17;
79689;PMS5003;69156;55.932;-3.238;2023-11-18T03:24:22;17;17;
79689;PMS5003;69156;55.932;-3.238;2023-11-18T03:26:47;15;15;
79689;PMS5003;69156;55.932;-3.238;2023-11-18T03:29:13;11;11;
79689;PMS5003;69156;55.932;-3.238;2023-11-18T03:31:38;12;11;
79689;PMS5003;69156;55.932;-3.238;2023-11-18T03:34:03;15;15;
79689;PMS5003;69156;55.932;-3.238;2023-11-18T03:36:28;16;15;
79689;PMS5003;69156;55.932;-3.238;2023-11-18T03:38:54;13;13;
79689;PMS5003;69156;55.932;-3.238;2023-11-18T03:41:20;19;18;
79689;PMS5003;69156;55.932;-3.238;2023-11-18T03:43:45;13;13;
79689;PMS5003;69156;55.932;-3.238;2023-11-18T03:46:11;18;18;
79689;PMS5003;69156;55.932;-3.238;2023-11-18T03:48:36;18;18;
79689;PMS5003;69156;55.932;-3.238;2023-11-18T03:51:01;19;18;
79689;PMS5003;69156;55.932;-3.238;2023-11-18T03:53:26;21;18;
79689;PMS5003;69156;55.932;-3.238;2023-11-18T03:55:51;20;18;
79689;PMS5003;69156;55.932;-3.238;2023-11-18T03:58:17;17;17;
79689;PMS5003;69156;55.932;-3.238;2023-11-18T04:00:42;17;17;
79689;PMS5003;69156;55.932;-3.238;2023-11-18T04:03:09;19;19;
79689;PMS5003;69156;55.932;-3.238;2023-11-18T04:05:34;21;21;
79689;PMS5003;69156;55.932;-3.238;2023-11-18T04:08:00;29;28;
79689;PMS5003;69156;55.932;-3.238;2023-11-18T04:10:26;32;31;
79689;PMS5003;69156;55.932;-3.238;2023-11-18T04:12:51;23;23;
79689;PMS5003;69156;55.932;-3.238;2023-11-18T04:15:16;26;26;
79689;PMS5003;69156;55.932;-3.238;2023-11-18T04:17:42;24;24;
79689;PMS5003;69156;55.932;-3.238;2023-11-18T04:20:09;30;30;
79689;PMS5003;69156;55.932;-3.238;2023-11-18T04:22:33;34;34;
79689;PMS5003;69156;55.932;-3.238;2023-11-18T04:24:58;30;30;
79689;PMS5003;69156;55.932;-3.238;2023-11-18T04:27:23;33;32;
79689;PMS5003;69156;55.932;-3.238;2023-11-18T04:29:49;38;37;
79689;PMS5003;69156;55.932;-3.238;2023-11-18T04:32:14;39;39;
79689;PMS5003;69156;55.932;-3.238;2023-11-18T04:34:39;44;43;
79689;PMS5003;69156;55.932;-3.238;2023-11-18T04:37:05;37;36;
79689;PMS5003;69156;55.932;-3.238;2023-11-18T04:39:31;30;28;
79689;PMS5003;69156;55.932;-3.238;2023-11-18T04:41:56;33;32;
79689;PMS5003;69156;55.932;-3.238;2023-11-18T04:44:21;34;34;
79689;PMS5003;69156;55.932;-3.238;2023-11-18T04:46:47;33;32;
79689;PMS5003;69156;55.932;-3.238;2023-11-18T04:49:12;29;28;
79689;PMS5003;69156;55.932;-3.238;2023-11-18T04:51:38;28;25;
79689;PMS5003;69156;55.932;-3.238;2023-11-18T04:54:04;25;24;
79689;PMS5003;69156;55.932;-3.238;2023-11-18T04:56:29;29;29;
79689;PMS5003;69156;55.932;-3.238;2023-11-18T04:58:54;25;23;
79689;PMS5003;69156;55.932;-3.238;2023-11-18T05:01:19;27;24;
79689;PMS5003;69156;55.932;-3.238;2023-11-18T05:03:44;27;25;
79689;PMS5003;69156;55.932;-3.238;2023-11-18T05:06:10;28;25;
79689;PMS5003;69156;55.932;-3.238;2023-11-18T05:08:36;30;26;
79689;PMS5003;69156;55.932;-3.238;2023-11-18T05:11:02;30;30;
79689;PMS5003;69156;55.932;-3.238;2023-11-18T05:13:27;26;26;
79689;PMS5003;69156;55.932;-3.238;2023-11-18T05:15:52;24;23;
79689;PMS5003;69156;55.932;-3.238;2023-11-18T05:18:18;25;24;
79689;PMS5003;69156;55.932;-3.238;2023-11-18T05:20:44;22;20;
79689;PMS5003;69156;55.932;-3.238;2023-11-18T05:23:09;25;24;
79689;PMS5003;69156;55.932;-3.238;2023-11-18T05:25:35;44;44;
79689;PMS5003;69156;55.932;-3.238;2023-11-18T05:28:00;30;29;
79689;PMS5003;69156;55.932;-3.238;2023-11-18T05:30:25;27;27;
79689;PMS5003;69156;55.932;-3.238;2023-11-18T05:32:50;53;52;
79689;PMS5003;69156;55.932;-3.238;2023-11-18T05:35:15;47;47;
79689;PMS5003;69156;55.932;-3.238;2023-11-18T05:37:41;34;34;
79689;PMS5003;69156;55.932;-3.238;2023-11-18T05:40:07;34;33;
79689;PMS5003;69156;55.932;-3.238;2023-11-18T05:42:33;37;36;
79689;PMS5003;69156;55.932;-3.238;2023-11-18T05:44:58;30;30;
79689;PMS5003;69156;55.932;-3.238;2023-11-18T05:47:23;24;24;
79689;PMS5003;69156;55.932;-3.238;2023-11-18T05:49:48;27;26;
79689;PMS5003;69156;55.932;-3.238;2023-11-18T05:52:14;26;22;
79689;PMS5003;69156;55.932;-3.238;2023-11-18T05:54:40;22;22;
79689;PMS5003;69156;55.932;-3.238;2023-11-18T05:57:05;22;21;
79689;PMS5003;69156;55.932;-3.238;2023-11-18T05:59:31;17;17;
79689;PMS5003;69156;55.932;-3.238;2023-11-18T06:01:56;23;22;
79689;PMS5003;69156;55.932;-3.238;2023-11-18T06:04:22;24;21;
79689;PMS5003;69156;55.932;-3.238;2023-11-18T06:06:48;21;21;
79689;PMS5003;69156;55.932;-3.238;2023-11-18T06:09:13;20;19;
79689;PMS5003;69156;55.932;-3.238;2023-11-18T06:11:38;25;23;
79689;PMS5003;69156;55.932;-3.238;2023-11-18T06:14:04;25;22;
79689;PMS5003;69156;55.932;-3.238;2023-11-18T06:16:29;26;23;
79689;PMS5003;69156;55.932;-3.238;2023-11-18T06:18:55;20;19;
79689;PMS5003;69156;55.932;-3.238;2023-11-18T06:21:21;20;20;
79689;PMS5003;69156;55.932;-3.238;2023-11-18T06:23:47;16;15;
79689;PMS5003;69156;55.932;-3.238;2023-11-18T06:26:12;20;20;
79689;PMS5003;69156;55.932;-3.238;2023-11-18T06:28:38;16;16;
79689;PMS5003;69156;55.932;-3.238;2023-11-18T06:31:04;16;15;
79689;PMS5003;69156;55.932;-3.238;2023-11-18T06:33:29;10;10;
79689;PMS5003;69156;55.932;-3.238;2023-11-18T06:35:55;10;10;
79689;PMS5003;69156;55.932;-3.238;2023-11-18T06:38:21;14;14;
79689;PMS5003;69156;55.932;-3.238;2023-11-18T06:40:47;8;7;
79689;PMS5003;69156;55.932;-3.238;2023-11-18T06:43:13;8;8;
79689;PMS5003;69156;55.932;-3.238;2023-11-18T06:45:42;7;7;
79689;PMS5003;69156;55.932;-3.238;2023-11-18T06:48:05;6;6;
79689;PMS5003;69156;55.932;-3.238;2023-11-18T06:50:31;7;7;
79689;PMS5003;69156;55.932;-3.238;2023-11-18T06:52:57;8;8;
79689;PMS5003;69156;55.932;-3.238;2023-11-18T06:55:23;12;12;
79689;PMS5003;69156;55.932;-3.238;2023-11-18T06:57:48;14;14;
79689;PMS5003;69156;55.932;-3.238;2023-11-18T07:00:14;9;9;
79689;PMS5003;69156;55.932;-3.238;2023-11-18T07:02:39;8;8;
79689;PMS5003;69156;55.932;-3.238;2023-11-18T07:05:05;9;8;
79689;PMS5003;69156;55.932;-3.238;2023-11-18T07:07:30;7;7;
79689;PMS5003;69156;55.932;-3.238;2023-11-18T07:09:55;8;8;
79689;PMS5003;69156;55.932;-3.238;2023-11-18T07:12:21;7;7;
79689;PMS5003;69156;55.932;-3.238;2023-11-18T07:14:47;9;8;
79689;PMS5003;69156;55.932;-3.238;2023-11-18T07:17:11;8;8;
79689;PMS5003;69156;55.932;-3.238;2023-11-18T07:19:37;9;9;
79689;PMS5003;69156;55.932;-3.238;2023-11-18T07:22:03;9;9;
79689;PMS5003;69156;55.932;-3.238;2023-11-18T07:24:28;11;11;
79689;PMS5003;69156;55.932;-3.238;2023-11-18T07:26:54;8;8;
79689;PMS5003;69156;55.932;-3.238;2023-11-18T07:29:19;11;11;
79689;PMS5003;69156;55.932;-3.238;2023-11-18T07:31:44;12;12;
79689;PMS5003;69156;55.932;-3.238;2023-11-18T07:34:09;14;11;
79689;PMS5003;69156;55.932;-3.238;2023-11-18T07:36:34;12;12;
79689;PMS5003;69156;55.932;-3.238;2023-11-18T07:39:00;11;11;
79689;PMS5003;69156;55.932;-3.238;2023-11-18T07:41:26;9;9;
79689;PMS5003;69156;55.932;-3.238;2023-11-18T07:43:51;12;12;
79689;PMS5003;69156;55.932;-3.238;2023-11-18T07:46:16;12;12;
79689;PMS5003;69156;55.932;-3.238;2023-11-18T07:48:41;12;11;
79689;PMS5003;69156;55.932;-3.238;2023-11-18T07:51:07;11;11;
79689;PMS5003;69156;55.932;-3.238;2023-11-18T07:53:33;13;13;
79689;PMS5003;69156;55.932;-3.238;2023-11-18T07:55:59;12;12;
79689;PMS5003;69156;55.932;-3.238;2023-11-18T07:58:24;14;14;
79689;PMS5003;69156;55.932;-3.238;2023-11-18T08:00:50;12;12;
79689;PMS5003;69156;55.932;-3.238;2023-11-18T08:03:16;11;11;
79689;PMS5003;69156;55.932;-3.238;2023-11-18T08:05:42;13;13;
79689;PMS5003;69156;55.932;-3.238;2023-11-18T08:08:08;11;11;
79689;PMS5003;69156;55.932;-3.238;2023-11-18T08:10:34;17;14;
79689;PMS5003;69156;55.932;-3.238;2023-11-18T08:12:59;12;11;
79689;PMS5003;69156;55.932;-3.238;2023-11-18T08:15:24;13;13;
79689;PMS5003;69156;55.932;-3.238;2023-11-18T08:17:49;12;12;
79689;PMS5003;69156;55.932;-3.238;2023-11-18T08:20:14;16;14;
79689;PMS5003;69156;55.932;-3.238;2023-11-18T08:22:40;17;16;
79689;PMS5003;69156;55.932;-3.238;2023-11-18T08:25:05;19;18;
79689;PMS5003;69156;55.932;-3.238;2023-11-18T08:27:31;13;13;
79689;PMS5003;69156;55.932;-3.238;2023-11-18T08:29:56;17;16;
79689;PMS5003;69156;55.932;-3.238;2023-11-18T08:32:22;13;13;
79689;PMS5003;69156;55.932;-3.238;2023-11-18T08:34:50;14;14;
79689;PMS5003;69156;55.932;-3.238;2023-11-18T08:37:14;13;12;
79689;PMS5003;69156;55.932;-3.238;2023-11-18T08:39:40;11;11;
79689;PMS5003;69156;55.932;-3.238;2023-11-18T08:42:05;12;11;
79689;PMS5003;69156;55.932;-3.238;2023-11-18T08:44:31;7;7;
79689;PMS5003;69156;55.932;-3.238;2023-11-18T08:46:56;6;6;
79689;PMS5003;69156;55.932;-3.238;2023-11-18T08:49:21;6;6;
79689;PMS5003;69156;55.932;-3.238;2023-11-18T08:51:47;7;7;
79689;PMS5003;69156;55.932;-3.238;2023-11-18T08:54:12;8;8;
79689;PMS5003;69156;55.932;-3.238;2023-11-18T08:56:39;11;9;
79689;PMS5003;69156;55.932;-3.238;2023-11-18T08:59:02;13;13;
79689;PMS5003;69156;55.932;-3.238;2023-11-18T09:01:28;11;11;
79689;PMS5003;69156;55.932;-3.238;2023-11-18T09:03:53;7;7;
79689;PMS5003;69156;55.932;-3.238;2023-11-18T09:06:19;7;7;
79689;PMS5003;69156;55.932;-3.238;2023-11-18T09:08:45;11;9;
79689;PMS5003;69156;55.932;-3.238;2023-11-18T09:11:10;9;8;
79689;PMS5003;69156;55.932;-3.238;2023-11-18T09:13:35;7;6;
79689;PMS5003;69156;55.932;-3.238;2023-11-18T09:16:01;7;7;
79689;PMS5003;69156;55.932;-3.238;2023-11-18T09:18:27;8;8;
79689;PMS5003;69156;55.932;-3.238;2023-11-18T09:20:53;8;7;
79689;PMS5003;69156;55.932;-3.238;2023-11-18T09:23:18;7;7;
79689;PMS5003;69156;55.932;-3.238;2023-11-18T09:25:45;6;6;
79689;PMS5003;69156;55.932;-3.238;2023-11-18T09:28:09;6;6;
79689;PMS5003;69156;55.932;-3.238;2023-11-18T09:30:35;6;6;
79689;PMS5003;69156;55.932;-3.238;2023-11-18T09:33:00;7;7;
79689;PMS5003;69156;55.932;-3.238;2023-11-18T09:35:25;8;8;
79689;PMS5003;69156;55.932;-3.238;2023-11-18T09:37:51;8;7;
79689;PMS5003;69156;55.932;-3.238;2023-11-18T09:40:16;6;6;
79689;PMS5003;69156;55.932;-3.238;2023-11-18T09:42:43;6;6;
79689;PMS5003;69156;55.932;-3.238;2023-11-18T09:45:08;6;6;
79689;PMS5003;69156;55.932;-3.238;2023-11-18T09:47:33;6;6;
79689;PMS5003;69156;55.932;-3.238;2023-11-18T09:49:58;6;6;
79689;PMS5003;69156;55.932;-3.238;2023-11-18T09:52:24;6;6;
79689;PMS5003;69156;55.932;-3.238;2023-11-18T09:54:51;4;4;
79689;PMS5003;69156;55.932;-3.238;2023-11-18T09:57:16;6;6;
79689;PMS5003;69156;55.932;-3.238;2023-11-18T09:59:42;7;7;
79689;PMS5003;69156;55.932;-3.238;2023-11-18T10:02:07;6;6;
79689;PMS5003;69156;55.932;-3.238;2023-11-18T10:04:32;8;8;
79689;PMS5003;69156;55.932;-3.238;2023-11-18T10:06:57;7;7;
79689;PMS5003;69156;55.932;-3.238;2023-11-18T10:09:22;4;4;
79689;PMS5003;69156;55.932;-3.238;2023-11-18T10:11:48;6;6;
79689;PMS5003;69156;55.932;-3.238;2023-11-18T10:14:13;6;6;
79689;PMS5003;69156;55.932;-3.238;2023-11-18T10:16:39;6;6;
79689;PMS5003;69156;55.932;-3.238;2023-11-18T10:19:03;6;6;
79689;PMS5003;69156;55.932;-3.238;2023-11-18T10:21:34;6;6;
79689;PMS5003;69156;55.932;-3.238;2023-11-18T10:24:01;7;6;
79689;PMS5003;69156;55.932;-3.238;2023-11-18T10:26:20;4;4;
79689;PMS5003;69156;55.932;-3.238;2023-11-18T10:28:45;7;7;
79689;PMS5003;69156;55.932;-3.238;2023-11-18T10:31:11;4;4;
79689;PMS5003;69156;55.932;-3.238;2023-11-18T10:33:37;3;3;
79689;PMS5003;69156;55.932;-3.238;2023-11-18T10:36:03;6;6;
79689;PMS5003;69156;55.932;-3.238;2023-11-18T10:38:29;6;3;
79689;PMS5003;69156;55.932;-3.238;2023-11-18T10:40:54;3;3;
79689;PMS5003;69156;55.932;-3.238;2023-11-18T10:43:19;4;4;
79689;PMS5003;69156;55.932;-3.238;2023-11-18T10:45:45;4;4;
79689;PMS5003;69156;55.932;-3.238;2023-11-18T10:48:10;4;4;
79689;PMS5003;69156;55.932;-3.238;2023-11-18T10:50:35;4;4;
79689;PMS5003;69156;55.932;-3.238;2023-11-18T10:53:02;3;3;
79689;PMS5003;69156;55.932;-3.238;2023-11-18T10:55:34;4;4;
79689;PMS5003;69156;55.932;-3.238;2023-11-18T10:57:51;4;4;
79689;PMS5003;69156;55.932;-3.238;2023-11-18T11:00:16;5;5;
79689;PMS5003;69156;55.932;-3.238;2023-11-18T11:02:41;5;5;
79689;PMS5003;69156;55.932;-3.238;2023-11-18T11:05:07;4;4;
79689;PMS5003;69156;55.932;-3.238;2023-11-18T11:07:32;7;5;
79689;PMS5003;69156;55.932;-3.238;2023-11-18T11:09:57;7;5;
79689;PMS5003;69156;55.932;-3.238;2023-11-18T11:12:23;6;6;
79689;PMS5003;69156;55.932;-3.238;2023-11-18T11:14:50;6;6;
79689;PMS5003;69156;55.932;-3.238;2023-11-18T11:17:14;4;4;
79689;PMS5003;69156;55.932;-3.238;2023-11-18T11:19:41;7;7;
79689;PMS5003;69156;55.932;-3.238;2023-11-18T11:22:05;6;4;
79689;PMS5003;69156;55.932;-3.238;2023-11-18T11:24:33;7;7;
79689;PMS5003;69156;55.932;-3.238;2023-11-18T11:26:57;6;6;
79689;PMS5003;69156;55.932;-3.238;2023-11-18T11:29:25;6;6;
79689;PMS5003;69156;55.932;-3.238;2023-11-18T11:31:47;8;7;
79689;PMS5003;69156;55.932;-3.238;2023-11-18T11:34:13;8;8;
79689;PMS5003;69156;55.932;-3.238;2023-11-18T11:36:37;5;5;
79689;PMS5003;69156;55.932;-3.238;2023-11-18T11:39:03;5;5;
79689;PMS5003;69156;55.932;-3.238;2023-11-18T11:41:28;5;5;
79689;PMS5003;69156;55.932;-3.238;2023-11-18T11:43:54;8;8;
79689;PMS5003;69156;55.932;-3.238;2023-11-18T11:46:19;7;7;
79689;PMS5003;69156;55.932;-3.238;2023-11-18T11:48:44;4;4;
79689;PMS5003;69156;55.932;-3.238;2023-11-18T11:51:12;7;7;
79689;PMS5003;69156;55.932;-3.238;2023-11-18T11:53:35;6;6;
79689;PMS5003;69156;55.932;-3.238;2023-11-18T11:56:01;4;4;
79689;PMS5003;69156;55.932;-3.238;2023-11-18T11:58:26;5;5;
79689;PMS5003;69156;55.932;-3.238;2023-11-18T12:00:52;5;5;
79689;PMS5003;69156;55.932;-3.238;2023-11-18T12:03:17;3;3;
79689;PMS5003;69156;55.932;-3.238;2023-11-18T12:05:43;7;7;
79689;PMS5003;69156;55.932;-3.238;2023-11-18T12:08:08;5;5;
79689;PMS5003;69156;55.932;-3.238;2023-11-18T12:10:34;4;4;
79689;PMS5003;69156;55.932;-3.238;2023-11-18T12:13:07;4;4;
79689;PMS5003;69156;55.932;-3.238;2023-11-18T12:15:47;5;5;
79689;PMS5003;69156;55.932;-3.238;2023-11-18T12:18:23;7;5;
79689;PMS5003;69156;55.932;-3.238;2023-11-18T12:20:37;5;5;
79689;PMS5003;69156;55.932;-3.238;2023-11-18T12:23:14;7;7;
79689;PMS5003;69156;55.932;-3.238;2023-11-18T12:25:31;5;5;
79689;PMS5003;69156;55.932;-3.238;2023-11-18T12:27:42;3;3;
79689;PMS5003;69156;55.932;-3.238;2023-11-18T12:29:59;4;3;
79689;PMS5003;69156;55.932;-3.238;2023-11-18T12:32:57;5;5;
79689;PMS5003;69156;55.932;-3.238;2023-11-18T12:34:50;8;8;
79689;PMS5003;69156;55.932;-3.238;2023-11-18T12:37:28;4;4;
79689;PMS5003;69156;55.932;-3.238;2023-11-18T12:39:51;5;5;
79689;PMS5003;69156;55.932;-3.238;2023-11-18T12:42:06;4;4;
79689;PMS5003;69156;55.932;-3.238;2023-11-18T12:44:35;4;4;
79689;PMS5003;69156;55.932;-3.238;2023-11-18T12:46:59;4;4;
79689;PMS5003;69156;55.932;-3.238;2023-11-18T12:49:22;4;4;
79689;PMS5003;69156;55.932;-3.238;2023-11-18T12:51:48;4;4;
79689;PMS5003;69156;55.932;-3.238;2023-11-18T12:54:13;6;6;
79689;PMS5003;69156;55.932;-3.238;2023-11-18T12:56:39;4;4;
79689;PMS5003;69156;55.932;-3.238;2023-11-18T12:59:04;3;3;
79689;PMS5003;69156;55.932;-3.238;2023-11-18T13:01:29;3;3;
79689;PMS5003;69156;55.932;-3.238;2023-11-18T13:03:55;2;2;
79689;PMS5003;69156;55.932;-3.238;2023-11-18T13:06:20;1;1;
79689;PMS5003;69156;55.932;-3.238;2023-11-18T13:08:45;0;0;
79689;PMS5003;69156;55.932;-3.238;2023-11-18T13:11:10;1;1;
79689;PMS5003;69156;55.932;-3.238;2023-11-18T13:13:36;1;1;
79689;PMS5003;69156;55.932;-3.238;2023-11-18T13:16:01;1;1;
79689;PMS5003;69156;55.932;-3.238;2023-11-18T13:18:27;1;1;
79689;PMS5003;69156;55.932;-3.238;2023-11-18T13:20:55;1;1;
79689;PMS5003;69156;55.932;-3.238;2023-11-18T13:23:17;1;1;
79689;PMS5003;69156;55.932;-3.238;2023-11-18T13:25:42;1;1;
79689;PMS5003;69156;55.932;-3.238;2023-11-18T13:28:08;0;0;
79689;PMS5003;69156;55.932;-3.238;2023-11-18T13:30:33;1;1;
79689;PMS5003;69156;55.932;-3.238;2023-11-18T13:32:58;1;1;
79689;PMS5003;69156;55.932;-3.238;2023-11-18T13:35:24;1;1;
79689;PMS5003;69156;55.932;-3.238;2023-11-18T13:37:49;1;1;
79689;PMS5003;69156;55.932;-3.238;2023-11-18T13:40:14;0;0;
79689;PMS5003;69156;55.932;-3.238;2023-11-18T13:42:39;0;0;
79689;PMS5003;69156;55.932;-3.238;2023-11-18T13:45:05;1;1;
79689;PMS5003;69156;55.932;-3.238;2023-11-18T13:47:31;1;1;
79689;PMS5003;69156;55.932;-3.238;2023-11-18T13:49:56;0;0;
79689;PMS5003;69156;55.932;-3.238;2023-11-18T13:52:22;1;1;
79689;PMS5003;69156;55.932;-3.238;2023-11-18T13:54:47;0;0;
79689;PMS5003;69156;55.932;-3.238;2023-11-18T13:57:13;1;1;
79689;PMS5003;69156;55.932;-3.238;2023-11-18T13:59:38;1;1;
79689;PMS5003;69156;55.932;-3.238;2023-11-18T14:02:04;1;1;
79689;PMS5003;69156;55.932;-3.238;2023-11-18T14:04:29;1;1;
79689;PMS5003;69156;55.932;-3.238;2023-11-18T14:06:57;1;1;
79689;PMS5003;69156;55.932;-3.238;2023-11-18T14:09:21;1;1;
79689;PMS5003;69156;55.932;-3.238;2023-11-18T14:11:47;1;1;
79689;PMS5003;69156;55.932;-3.238;2023-11-18T14:14:12;0;0;
79689;PMS5003;69156;55.932;-3.238;2023-11-18T14:16:37;1;1;
79689;PMS5003;69156;55.932;-3.238;2023-11-18T14:19:03;0;0;
79689;PMS5003;69156;55.932;-3.238;2023-11-18T14:21:28;1;1;
79689;PMS5003;69156;55.932;-3.238;2023-11-18T14:23:54;1;1;
79689;PMS5003;69156;55.932;-3.238;2023-11-18T14:26:20;2;2;
79689;PMS5003;69156;55.932;-3.238;2023-11-18T14:28:45;1;1;
79689;PMS5003;69156;55.932;-3.238;2023-11-18T14:31:10;2;2;
79689;PMS5003;69156;55.932;-3.238;2023-11-18T14:33:36;2;2;
79689;PMS5003;69156;55.932;-3.238;2023-11-18T14:36:02;1;1;
79689;PMS5003;69156;55.932;-3.238;2023-11-18T14:38:28;2;2;
79689;PMS5003;69156;55.932;-3.238;2023-11-18T14:40:54;3;3;
79689;PMS5003;69156;55.932;-3.238;2023-11-18T14:43:19;4;4;
79689;PMS5003;69156;55.932;-3.238;2023-11-18T14:45:45;1;1;
79689;PMS5003;69156;55.932;-3.238;2023-11-18T14:48:10;2;2;
79689;PMS5003;69156;55.932;-3.238;2023-11-18T14:50:36;2;2;
79689;PMS5003;69156;55.932;-3.238;2023-11-18T14:53:01;2;2;
79689;PMS5003;69156;55.932;-3.238;2023-11-18T14:55:27;3;3;
79689;PMS5003;69156;55.932;-3.238;2023-11-18T14:57:53;3;3;
79689;PMS5003;69156;55.932;-3.238;2023-11-18T15:00:18;3;3;
79689;PMS5003;69156;55.932;-3.238;2023-11-18T15:02:45;3;3;
79689;PMS5003;69156;55.932;-3.238;2023-11-18T15:05:10;3;3;
79689;PMS5003;69156;55.932;-3.238;2023-11-18T15:07:36;3;3;
79689;PMS5003;69156;55.932;-3.238;2023-11-18T15:10:01;3;3;
79689;PMS5003;69156;55.932;-3.238;2023-11-18T15:12:27;2;2;
79689;PMS5003;69156;55.932;-3.238;2023-11-18T15:14:52;4;3;
79689;PMS5003;69156;55.932;-3.238;2023-11-18T15:17:17;3;3;
79689;PMS5003;69156;55.932;-3.238;2023-11-18T15:19:44;4;4;
79689;PMS5003;69156;55.932;-3.238;2023-11-18T15:22:09;3;3;
79689;PMS5003;69156;55.932;-3.238;2023-11-18T15:24:35;7;7;
79689;PMS5003;69156;55.932;-3.238;2023-11-18T15:27:01;4;4;
79689;PMS5003;69156;55.932;-3.238;2023-11-18T15:29:27;5;5;
79689;PMS5003;69156;55.932;-3.238;2023-11-18T15:31:52;7;7;
79689;PMS5003;69156;55.932;-3.238;2023-11-18T15:34:18;4;4;
79689;PMS5003;69156;55.932;-3.238;2023-11-18T15:36:44;4;4;
79689;PMS5003;69156;55.932;-3.238;2023-11-18T15:39:09;4;4;
79689;PMS5003;69156;55.932;-3.238;2023-11-18T15:41:34;7;7;
79689;PMS5003;69156;55.932;-3.238;2023-11-18T15:43:59;5;5;
79689;PMS5003;69156;55.932;-3.238;2023-11-18T15:46:24;7;7;
79689;PMS5003;69156;55.932;-3.238;2023-11-18T15:48:50;5;5;
79689;PMS5003;69156;55.932;-3.238;2023-11-18T15:51:15;8;8;
79689;PMS5003;69156;55.932;-3.238;2023-11-18T15:53:41;7;7;
79689;PMS5003;69156;55.932;-3.238;2023-11-18T15:56:06;5;5;
79689;PMS5003;69156;55.932;-3.238;2023-11-18T15:58:31;8;8;
79689;PMS5003;69156;55.932;-3.238;2023-11-18T16:00:57;8;8;
79689;PMS5003;69156;55.932;-3.238;2023-11-18T16:03:22;8;8;
79689;PMS5003;69156;55.932;-3.238;2023-11-18T16:05:48;4;4;